createdAt,value
2017-05-24T04:46:23.224Z,15.33
2017-05-24T04:46:48.694Z,15.35
2017-05-24T04:47:14.168Z,15.33
2017-05-24T04:47:39.653Z,15.31
2017-05-24T04:48:05.143Z,15.35
2017-05-24T04:48:30.598Z,15.4
2017-05-24T04:48:56.063Z,15.29
2017-05-24T04:49:21.519Z,15.36
2017-05-24T04:49:46.989Z,15.4
2017-05-24T04:50:12.487Z,15.36
2017-05-24T04:50:37.992Z,15.4
2017-05-24T04:51:03.433Z,15.39
2017-05-24T04:51:28.910Z,15.39
2017-05-24T04:51:54.390Z,15.47
2017-05-24T04:52:19.827Z,15.44
2017-05-24T04:52:45.308Z,15.4
2017-05-24T04:53:10.771Z,15.47
2017-05-24T04:53:36.257Z,15.49
2017-05-24T04:54:01.726Z,15.43
2017-05-24T04:54:27.192Z,15.49
2017-05-24T04:54:52.643Z,15.54
2017-05-24T04:55:18.115Z,15.52
2017-05-24T04:55:43.571Z,15.47
2017-05-24T04:56:09.048Z,15.54
2017-05-24T04:56:34.562Z,15.51
2017-05-24T04:57:00.065Z,15.49
2017-05-24T04:57:25.542Z,15.51
2017-05-24T04:57:51.003Z,15.52
2017-05-24T04:58:16.476Z,15.52
2017-05-24T04:58:41.953Z,15.55
2017-05-24T04:59:07.460Z,15.58
2017-05-24T04:59:32.922Z,15.49
2017-05-24T04:59:58.385Z,15.62
2017-05-24T05:00:23.851Z,15.62
2017-05-24T05:00:49.313Z,15.67
2017-05-24T05:01:14.806Z,15.59
2017-05-24T05:01:40.264Z,15.58
2017-05-24T05:02:05.748Z,15.65
2017-05-24T05:02:31.214Z,15.68
2017-05-24T05:02:56.701Z,15.7
2017-05-24T05:03:22.162Z,15.72
2017-05-24T05:03:47.587Z,15.86
2017-05-24T05:04:13.074Z,15.91
2017-05-24T05:04:38.576Z,15.91
2017-05-24T05:05:04.053Z,15.8
2017-05-24T05:05:29.552Z,15.8
2017-05-24T05:05:55.040Z,15.8
2017-05-24T05:06:20.507Z,16
2017-05-24T05:06:45.972Z,15.91
2017-05-24T05:07:11.501Z,15.9
2017-05-24T05:07:36.985Z,15.88
2017-05-24T05:08:02.459Z,15.95
2017-05-24T05:08:28.002Z,15.95
2017-05-24T05:08:53.475Z,15.91
2017-05-24T05:09:18.967Z,15.91
2017-05-24T05:09:44.445Z,16.08
2017-05-24T05:10:09.922Z,15.98
2017-05-24T05:10:35.448Z,15.95
2017-05-24T05:11:00.945Z,16.01
2017-05-24T05:11:26.423Z,15.92
2017-05-24T05:11:51.960Z,16.04
2017-05-24T05:12:17.433Z,15.92
2017-05-24T05:12:42.876Z,15.97
2017-05-24T05:13:08.346Z,16
2017-05-24T05:13:33.822Z,16.09
2017-05-24T05:13:59.285Z,16.08
2017-05-24T05:14:24.745Z,16.2
2017-05-24T05:14:50.226Z,16.05
2017-05-24T05:15:15.713Z,16.12
2017-05-24T05:15:41.202Z,16.16
2017-05-24T05:16:06.654Z,16.12
2017-05-24T05:16:32.142Z,16.16
2017-05-24T05:16:57.613Z,16.17
2017-05-24T05:17:23.096Z,16.15
2017-05-24T05:17:48.546Z,16.28
2017-05-24T05:18:14.036Z,16.24
2017-05-24T05:18:39.527Z,16.2
2017-05-24T05:19:04.993Z,16.28
2017-05-24T05:19:30.452Z,16.21
2017-05-24T05:19:55.913Z,16.28
2017-05-24T05:20:21.395Z,16.2
2017-05-24T05:20:46.877Z,16.29
2017-05-24T05:21:12.381Z,16.28
2017-05-24T05:21:37.881Z,16.2
2017-05-24T05:22:03.389Z,16.31
2017-05-24T05:22:28.877Z,16.2
2017-05-24T05:22:54.383Z,16.31
2017-05-24T05:23:19.867Z,16.29
2017-05-24T05:23:45.375Z,16.31
2017-05-24T05:24:10.854Z,16.39
2017-05-24T05:24:36.350Z,16.42
2017-05-24T05:25:01.818Z,16.41
2017-05-24T05:25:27.319Z,16.42
2017-05-24T05:25:52.788Z,16.41
2017-05-24T05:26:18.252Z,16.41
2017-05-24T05:26:43.753Z,16.49
2017-05-24T05:27:09.241Z,16.5
2017-05-24T05:27:34.729Z,16.42
2017-05-24T05:28:00.228Z,16.51
2017-05-24T05:28:25.720Z,16.53
2017-05-24T05:28:51.192Z,16.68
2017-05-24T05:29:16.680Z,16.72
2017-05-24T05:29:42.149Z,16.74
2017-05-24T05:30:07.654Z,16.71
2017-05-24T05:30:33.131Z,16.76
2017-05-24T05:30:58.624Z,16.87
2017-05-24T05:31:24.102Z,16.84
2017-05-24T05:31:49.571Z,16.78
2017-05-24T05:32:15.039Z,16.9
2017-05-24T05:32:40.515Z,16.89
2017-05-24T05:33:05.985Z,16.96
2017-05-24T05:33:31.452Z,16.97
2017-05-24T05:33:56.915Z,17.04
2017-05-24T05:34:22.389Z,17.09
2017-05-24T05:34:47.863Z,17.14
2017-05-24T05:35:13.338Z,17.23
2017-05-24T05:35:38.822Z,17.36
2017-05-24T05:36:04.302Z,17.33
2017-05-24T05:36:29.738Z,17.34
2017-05-24T05:36:55.224Z,17.44
2017-05-24T05:37:20.703Z,17.56
2017-05-24T05:37:46.195Z,17.48
2017-05-24T05:38:11.679Z,17.49
2017-05-24T05:38:37.147Z,17.51
2017-05-24T05:39:02.598Z,17.68
2017-05-24T05:39:28.076Z,17.63
2017-05-24T05:39:53.581Z,17.67
2017-05-24T05:40:19.080Z,17.82
2017-05-24T05:40:44.531Z,17.78
2017-05-24T05:41:10.008Z,17.8
2017-05-24T05:41:35.484Z,17.78
2017-05-24T05:42:00.970Z,17.79
2017-05-24T05:42:26.445Z,17.79
2017-05-24T05:42:51.943Z,17.82
2017-05-24T05:43:17.432Z,17.82
2017-05-24T05:43:42.961Z,17.82
2017-05-24T05:44:08.405Z,17.8
2017-05-24T05:44:33.880Z,17.85
2017-05-24T05:44:59.381Z,17.9
2017-05-24T05:45:24.879Z,17.97
2017-05-24T05:45:50.336Z,17.97
2017-05-24T05:46:15.810Z,18.1
2017-05-24T05:46:41.294Z,18.16
2017-05-24T05:47:06.765Z,18.18
2017-05-24T05:47:32.237Z,18.15
2017-05-24T05:47:57.731Z,18.22
2017-05-24T05:48:23.183Z,18.25
2017-05-24T05:48:48.640Z,18.33
2017-05-24T05:49:14.094Z,18.41
2017-05-24T05:49:39.551Z,18.33
2017-05-24T05:50:05.045Z,18.43
2017-05-24T05:50:30.575Z,18.53
2017-05-24T05:50:56.052Z,18.5
2017-05-24T05:51:21.574Z,18.55
2017-05-24T05:51:47.002Z,18.5
2017-05-24T05:52:12.479Z,18.52
2017-05-24T05:52:37.974Z,18.52
2017-05-24T05:53:03.471Z,18.58
2017-05-24T05:53:28.955Z,18.53
2017-05-24T05:53:54.428Z,18.55
2017-05-24T05:54:19.942Z,18.5
2017-05-24T05:54:45.437Z,18.52
2017-05-24T05:55:10.932Z,18.5
2017-05-24T05:55:36.419Z,18.5
2017-05-24T05:56:01.903Z,18.49
2017-05-24T05:56:27.373Z,18.44
2017-05-24T05:56:52.859Z,18.37
2017-05-24T05:57:18.345Z,18.35
2017-05-24T05:57:43.835Z,18.34
2017-05-24T05:58:09.316Z,18.28
2017-05-24T05:58:34.793Z,18.31
2017-05-24T05:59:00.260Z,18.33
2017-05-24T05:59:25.727Z,18.34
2017-05-24T05:59:51.222Z,18.34
2017-05-24T06:00:16.695Z,18.4
2017-05-24T06:00:42.217Z,18.34
2017-05-24T06:01:07.683Z,18.41
2017-05-24T06:01:33.145Z,18.44
2017-05-24T06:01:58.597Z,18.49
2017-05-24T06:02:24.064Z,18.52
2017-05-24T06:02:49.518Z,18.53
2017-05-24T06:03:14.951Z,18.59
2017-05-24T06:03:40.419Z,18.58
2017-05-24T06:04:05.900Z,18.58
2017-05-24T06:04:31.363Z,18.73
2017-05-24T06:04:56.839Z,18.73
2017-05-24T06:05:22.326Z,18.73
2017-05-24T06:05:47.787Z,18.86
2017-05-24T06:06:13.311Z,18.93
2017-05-24T06:06:38.740Z,18.95
2017-05-24T06:07:04.220Z,18.9
2017-05-24T06:07:29.708Z,19.08
2017-05-24T06:07:55.197Z,19
2017-05-24T06:08:20.679Z,19.09
2017-05-24T06:08:46.130Z,19.12
2017-05-24T06:09:11.613Z,19.27
2017-05-24T06:09:37.089Z,19.33
2017-05-24T06:10:02.571Z,19.31
2017-05-24T06:10:28.086Z,19.41
2017-05-24T06:10:53.612Z,19.45
2017-05-24T06:11:19.109Z,19.58
2017-05-24T06:11:44.556Z,19.58
2017-05-24T06:12:10.059Z,19.58
2017-05-24T06:12:35.523Z,19.76
2017-05-24T06:13:01.032Z,19.85
2017-05-24T06:13:26.503Z,19.85
2017-05-24T06:13:51.996Z,19.99
2017-05-24T06:14:17.476Z,19.99
2017-05-24T06:14:42.933Z,20.02
2017-05-24T06:15:08.429Z,20.06
2017-05-24T06:15:33.860Z,20.07
2017-05-24T06:15:59.329Z,20.14
2017-05-24T06:16:24.782Z,20.25
2017-05-24T06:16:50.249Z,20.29
2017-05-24T06:17:15.719Z,20.25
2017-05-24T06:17:41.198Z,20.4
2017-05-24T06:18:06.685Z,20.4
2017-05-24T06:18:32.135Z,20.39
2017-05-24T06:18:57.609Z,20.5
2017-05-24T06:19:23.090Z,20.5
2017-05-24T06:19:48.545Z,20.56
2017-05-24T06:20:14.041Z,20.56
2017-05-24T06:20:39.500Z,20.63
2017-05-24T06:21:04.969Z,20.51
2017-05-24T06:21:30.447Z,20.59
2017-05-24T06:21:55.909Z,20.62
2017-05-24T06:22:21.381Z,20.6
2017-05-24T06:22:46.862Z,20.55
2017-05-24T06:23:12.354Z,20.52
2017-05-24T06:23:37.835Z,20.66
2017-05-24T06:24:03.303Z,20.56
2017-05-24T06:24:28.782Z,20.6
2017-05-24T06:24:54.270Z,20.56
2017-05-24T06:25:19.749Z,20.63
2017-05-24T06:25:45.171Z,20.56
2017-05-24T06:26:10.631Z,20.63
2017-05-24T06:26:36.117Z,20.65
2017-05-24T06:27:01.569Z,20.66
2017-05-24T06:27:27.054Z,20.56
2017-05-24T06:27:52.527Z,20.5
2017-05-24T06:28:18.003Z,20.52
2017-05-24T06:28:43.475Z,20.44
2017-05-24T06:29:08.930Z,20.48
2017-05-24T06:29:34.400Z,20.39
2017-05-24T06:29:59.876Z,20.37
2017-05-24T06:30:25.353Z,20.34
2017-05-24T06:30:50.879Z,20.25
2017-05-24T06:31:16.323Z,20.28
2017-05-24T06:31:41.802Z,20.14
2017-05-24T06:32:07.267Z,20.18
2017-05-24T06:32:32.761Z,20.16
2017-05-24T06:32:58.226Z,20.11
2017-05-24T06:33:23.700Z,20.06
2017-05-24T06:33:49.163Z,20.06
2017-05-24T06:34:14.605Z,19.92
2017-05-24T06:34:40.062Z,19.92
2017-05-24T06:35:05.543Z,19.91
2017-05-24T06:35:31.046Z,19.84
2017-05-24T06:35:56.504Z,19.73
2017-05-24T06:36:21.957Z,19.73
2017-05-24T06:36:47.504Z,19.74
2017-05-24T06:37:12.948Z,19.62
2017-05-24T06:37:38.444Z,19.66
2017-05-24T06:38:03.896Z,19.56
2017-05-24T06:38:29.380Z,19.62
2017-05-24T06:38:54.855Z,19.63
2017-05-24T06:39:20.323Z,19.55
2017-05-24T06:39:45.822Z,19.62
2017-05-24T06:40:11.320Z,19.54
2017-05-24T06:40:36.787Z,19.49
2017-05-24T06:41:02.290Z,19.45
2017-05-24T06:41:27.764Z,19.45
2017-05-24T06:41:53.233Z,19.41
2017-05-24T06:42:18.700Z,19.29
2017-05-24T06:42:44.188Z,19.4
2017-05-24T06:43:09.672Z,19.29
2017-05-24T06:43:35.147Z,19.34
2017-05-24T06:44:00.598Z,19.39
2017-05-24T06:44:26.096Z,19.27
2017-05-24T06:44:51.585Z,19.36
2017-05-24T06:45:17.050Z,19.27
2017-05-24T06:45:42.533Z,19.34
2017-05-24T06:46:07.982Z,19.33
2017-05-24T06:46:33.427Z,19.3
2017-05-24T06:46:58.935Z,19.15
2017-05-24T06:47:24.426Z,19.22
2017-05-24T06:47:49.892Z,19.18
2017-05-24T06:48:15.389Z,19.12
2017-05-24T06:48:40.868Z,19.15
2017-05-24T06:49:06.332Z,19.14
2017-05-24T06:49:31.836Z,19
2017-05-24T06:49:57.309Z,19.07
2017-05-24T06:50:22.779Z,19
2017-05-24T06:50:48.233Z,18.98
2017-05-24T06:51:13.703Z,18.92
2017-05-24T06:51:39.188Z,18.92
2017-05-24T06:52:04.666Z,19
2017-05-24T06:52:30.134Z,18.92
2017-05-24T06:52:55.624Z,18.95
2017-05-24T06:53:21.108Z,18.93
2017-05-24T06:53:46.561Z,18.9
2017-05-24T06:54:12.079Z,18.84
2017-05-24T06:54:37.517Z,18.84
2017-05-24T06:55:02.969Z,18.86
2017-05-24T06:55:28.484Z,18.83
2017-05-24T06:55:53.942Z,18.84
2017-05-24T06:56:19.424Z,18.8
2017-05-24T06:56:44.940Z,18.86
2017-05-24T06:57:10.398Z,18.74
2017-05-24T06:57:35.871Z,18.75
2017-05-24T06:58:01.354Z,18.8
2017-05-24T06:58:26.825Z,18.81
2017-05-24T06:58:52.298Z,18.83
2017-05-24T06:59:17.798Z,18.81
2017-05-24T06:59:43.273Z,18.86
2017-05-24T07:00:08.736Z,18.86
2017-05-24T07:00:34.218Z,18.83
2017-05-24T07:00:59.708Z,18.78
2017-05-24T07:01:25.165Z,18.93
2017-05-24T07:01:50.657Z,18.88
2017-05-24T07:02:16.150Z,18.92
2017-05-24T07:02:41.618Z,18.95
2017-05-24T07:03:07.092Z,18.92
2017-05-24T07:03:32.569Z,18.88
2017-05-24T07:03:58.069Z,18.93
2017-05-24T07:04:23.522Z,18.9
2017-05-24T07:04:48.996Z,18.89
2017-05-24T07:05:14.527Z,18.99
2017-05-24T07:05:39.957Z,18.96
2017-05-24T07:06:05.422Z,18.99
2017-05-24T07:06:30.902Z,18.88
2017-05-24T07:06:56.386Z,18.96
2017-05-24T07:07:21.870Z,18.98
2017-05-24T07:07:47.337Z,18.98
2017-05-24T07:08:12.790Z,18.9
2017-05-24T07:08:38.276Z,18.98
2017-05-24T07:09:03.702Z,18.98
2017-05-24T07:09:29.166Z,19.02
2017-05-24T07:09:54.661Z,19
2017-05-24T07:10:52.682Z,19.07
2017-05-24T07:11:18.194Z,18.95
2017-05-24T07:11:43.670Z,19.08
2017-05-24T07:12:09.160Z,18.98
2017-05-24T07:12:34.655Z,19
2017-05-24T07:13:00.148Z,19.02
2017-05-24T07:13:25.605Z,18.99
2017-05-24T07:13:51.080Z,19
2017-05-24T07:14:16.546Z,19.02
2017-05-24T07:14:41.981Z,19.02
2017-05-24T07:15:07.458Z,19.16
2017-05-24T07:15:32.929Z,19.11
2017-05-24T07:15:58.390Z,19.08
2017-05-24T07:16:23.847Z,19.15
2017-05-24T07:16:49.330Z,19.14
2017-05-24T07:17:14.788Z,19.14
2017-05-24T07:17:40.257Z,19.14
2017-05-24T07:18:05.720Z,19.12
2017-05-24T07:18:31.191Z,19.12
2017-05-24T07:18:56.678Z,19.12
2017-05-24T07:19:22.118Z,19.16
2017-05-24T07:19:47.622Z,19.12
2017-05-24T07:20:13.066Z,19.12
2017-05-24T07:20:38.532Z,19.11
2017-05-24T07:21:03.990Z,19.09
2017-05-24T07:21:29.443Z,19.02
2017-05-24T07:21:54.926Z,19.08
2017-05-24T07:22:20.394Z,19.14
2017-05-24T07:22:45.874Z,19.14
2017-05-24T07:23:11.343Z,19.11
2017-05-24T07:23:36.799Z,19
2017-05-24T07:24:02.282Z,19.07
2017-05-24T07:24:27.765Z,19.02
2017-05-24T07:24:53.262Z,19.07
2017-05-24T07:25:18.742Z,19.02
2017-05-24T07:25:44.246Z,18.99
2017-05-24T07:26:09.720Z,18.99
2017-05-24T07:26:35.220Z,18.95
2017-05-24T07:27:00.712Z,18.98
2017-05-24T07:27:26.205Z,18.99
2017-05-24T07:27:51.677Z,19
2017-05-24T07:28:17.136Z,18.99
2017-05-24T07:28:42.607Z,18.98
2017-05-24T07:29:08.088Z,18.98
2017-05-24T07:29:33.565Z,18.98
2017-05-24T07:29:59.034Z,19
2017-05-24T07:30:24.530Z,19.04
2017-05-24T07:30:49.988Z,19.07
2017-05-24T07:31:15.467Z,19.07
2017-05-24T07:31:40.912Z,19.08
2017-05-24T07:32:06.487Z,19.12
2017-05-24T07:32:31.925Z,19.12
2017-05-24T07:32:57.421Z,19.08
2017-05-24T07:33:22.871Z,19.15
2017-05-24T07:33:48.333Z,19.02
2017-05-24T07:34:13.842Z,19.14
2017-05-24T07:34:39.324Z,19.07
2017-05-24T07:35:04.805Z,19.12
2017-05-24T07:35:30.286Z,19.19
2017-05-24T07:35:55.766Z,19.15
2017-05-24T07:36:21.251Z,19.16
2017-05-24T07:36:46.712Z,19.14
2017-05-24T07:37:12.167Z,19.14
2017-05-24T07:37:37.640Z,19.21
2017-05-24T07:38:03.116Z,19.14
2017-05-24T07:38:28.583Z,19.19
2017-05-24T07:38:54.032Z,19.19
2017-05-24T07:39:19.525Z,19.19
2017-05-24T07:39:45.016Z,19.26
2017-05-24T07:40:10.482Z,19.16
2017-05-24T07:40:35.940Z,19.21
2017-05-24T07:41:01.428Z,19.16
2017-05-24T07:41:26.898Z,19.26
2017-05-24T07:41:52.366Z,19.16
2017-05-24T07:42:17.805Z,19.19
2017-05-24T07:42:43.280Z,19.22
2017-05-24T07:43:08.798Z,19.22
2017-05-24T07:43:34.348Z,19.19
2017-05-24T07:43:59.836Z,19.27
2017-05-24T07:44:25.331Z,19.16
2017-05-24T07:44:50.832Z,19.34
2017-05-24T07:45:16.284Z,19.29
2017-05-24T07:45:41.772Z,19.29
2017-05-24T07:46:07.230Z,19.27
2017-05-24T07:46:32.680Z,19.39
2017-05-24T07:46:58.122Z,19.4
2017-05-24T07:47:23.591Z,19.3
2017-05-24T07:47:49.060Z,19.45
2017-05-24T07:48:14.519Z,19.4
2017-05-24T07:48:40.001Z,19.55
2017-05-24T07:49:05.456Z,19.54
2017-05-24T07:49:30.911Z,19.55
2017-05-24T07:49:56.390Z,19.58
2017-05-24T07:50:21.836Z,19.51
2017-05-24T07:50:47.294Z,19.62
2017-05-24T07:51:12.751Z,19.59
2017-05-24T07:51:38.214Z,19.58
2017-05-24T07:52:03.695Z,19.74
2017-05-24T07:52:29.138Z,19.7
2017-05-24T07:52:54.614Z,19.85
2017-05-24T07:53:20.134Z,19.81
2017-05-24T07:53:45.573Z,19.84
2017-05-24T07:54:11.068Z,19.92
2017-05-24T07:54:36.553Z,20
2017-05-24T07:55:02.038Z,20.06
2017-05-24T07:55:27.512Z,20.09
2017-05-24T07:55:53.012Z,20.14
2017-05-24T07:56:18.485Z,20.14
2017-05-24T07:56:43.986Z,20.28
2017-05-24T07:57:09.456Z,20.32
2017-05-24T07:57:34.933Z,20.32
2017-05-24T07:58:00.412Z,20.37
2017-05-24T07:58:25.910Z,20.48
2017-05-24T07:58:51.374Z,20.48
2017-05-24T07:59:16.880Z,20.56
2017-05-24T07:59:42.329Z,20.56
2017-05-24T08:00:07.792Z,20.59
2017-05-24T08:00:33.283Z,20.69
2017-05-24T08:00:58.800Z,20.69
2017-05-24T08:01:24.270Z,20.63
2017-05-24T08:01:49.725Z,20.66
2017-05-24T08:02:15.212Z,20.63
2017-05-24T08:02:40.673Z,20.66
2017-05-24T08:03:06.152Z,20.63
2017-05-24T08:03:31.637Z,20.7
2017-05-24T08:03:57.114Z,20.66
2017-05-24T08:04:22.608Z,20.72
2017-05-24T08:04:48.062Z,20.7
2017-05-24T08:05:13.535Z,20.77
2017-05-24T08:05:39.010Z,20.78
2017-05-24T08:06:04.507Z,20.74
2017-05-24T08:06:30.007Z,20.75
2017-05-24T08:06:55.479Z,20.74
2017-05-24T08:07:20.947Z,20.7
2017-05-24T08:07:46.411Z,20.74
2017-05-24T08:08:11.894Z,20.7
2017-05-24T08:08:37.363Z,20.66
2017-05-24T08:09:02.854Z,20.66
2017-05-24T08:09:28.312Z,20.56
2017-05-24T08:09:53.782Z,20.63
2017-05-24T08:10:19.258Z,20.55
2017-05-24T08:10:44.760Z,20.59
2017-05-24T08:11:10.227Z,20.5
2017-05-24T08:11:35.691Z,20.44
2017-05-24T08:12:01.148Z,20.51
2017-05-24T08:12:26.622Z,20.43
2017-05-24T08:12:52.082Z,20.36
2017-05-24T08:13:17.543Z,20.36
2017-05-24T08:13:43.039Z,20.37
2017-05-24T08:14:08.502Z,20.31
2017-05-24T08:14:33.948Z,20.29
2017-05-24T08:14:59.425Z,20.34
2017-05-24T08:15:24.925Z,20.24
2017-05-24T08:15:50.409Z,20.29
2017-05-24T08:16:15.828Z,20.24
2017-05-24T08:16:41.307Z,20.29
2017-05-24T08:17:06.783Z,20.29
2017-05-24T08:17:32.251Z,20.32
2017-05-24T08:17:57.741Z,20.31
2017-05-24T08:18:23.186Z,20.24
2017-05-24T08:18:48.628Z,20.31
2017-05-24T08:19:14.098Z,20.25
2017-05-24T08:19:39.567Z,20.29
2017-05-24T08:20:05.053Z,20.29
2017-05-24T08:20:30.561Z,20.32
2017-05-24T08:20:56.018Z,20.39
2017-05-24T08:21:21.486Z,20.4
2017-05-24T08:21:46.989Z,20.37
2017-05-24T08:22:12.469Z,20.5
2017-05-24T08:22:37.928Z,20.48
2017-05-24T08:23:03.370Z,20.56
2017-05-24T08:23:28.836Z,20.62
2017-05-24T08:23:54.279Z,20.65
2017-05-24T08:24:19.811Z,20.66
2017-05-24T08:24:45.261Z,20.7
2017-05-24T08:25:10.728Z,20.75
2017-05-24T08:25:36.222Z,20.77
2017-05-24T08:26:01.683Z,20.81
2017-05-24T08:26:27.182Z,20.82
2017-05-24T08:26:52.649Z,20.82
2017-05-24T08:27:18.102Z,20.92
2017-05-24T08:27:43.549Z,20.92
2017-05-24T08:28:09.011Z,20.87
2017-05-24T08:28:34.514Z,21
2017-05-24T08:28:59.957Z,21.02
2017-05-24T08:29:25.467Z,20.95
2017-05-24T08:29:50.952Z,20.99
2017-05-24T08:30:16.439Z,20.95
2017-05-24T08:30:41.922Z,20.97
2017-05-24T08:31:07.384Z,20.96
2017-05-24T08:31:32.828Z,20.95
2017-05-24T08:31:58.278Z,20.95
2017-05-24T08:32:23.726Z,20.92
2017-05-24T08:32:49.203Z,21.05
2017-05-24T08:33:14.662Z,21.07
2017-05-24T08:33:40.130Z,21.05
2017-05-24T08:34:05.606Z,21.09
2017-05-24T08:34:31.094Z,21.09
2017-05-24T08:34:56.581Z,21.07
2017-05-24T08:35:22.022Z,21.05
2017-05-24T08:35:47.505Z,21.14
2017-05-24T08:36:12.961Z,21.14
2017-05-24T08:36:38.402Z,21.18
2017-05-24T08:37:03.863Z,21.24
2017-05-24T08:37:29.334Z,21.25
2017-05-24T08:37:54.795Z,21.29
2017-05-24T08:38:20.266Z,21.24
2017-05-24T08:38:45.759Z,21.27
2017-05-24T08:39:11.225Z,21.3
2017-05-24T08:39:36.682Z,21.32
2017-05-24T08:40:02.161Z,21.35
2017-05-24T08:40:27.627Z,21.32
2017-05-24T08:40:53.102Z,21.3
2017-05-24T08:41:18.569Z,21.37
2017-05-24T08:41:44.079Z,21.33
2017-05-24T08:42:09.578Z,21.35
2017-05-24T08:42:35.050Z,21.42
2017-05-24T08:43:00.510Z,21.39
2017-05-24T08:43:25.975Z,21.37
2017-05-24T08:43:51.453Z,21.36
2017-05-24T08:44:16.925Z,21.4
2017-05-24T08:44:42.377Z,21.36
2017-05-24T08:45:07.842Z,21.36
2017-05-24T08:45:33.351Z,21.39
2017-05-24T08:45:58.790Z,21.43
2017-05-24T08:46:24.265Z,21.37
2017-05-24T08:46:49.718Z,21.3
2017-05-24T08:47:15.199Z,21.32
2017-05-24T08:47:40.669Z,21.29
2017-05-24T08:48:06.151Z,21.2
2017-05-24T08:48:31.618Z,21.17
2017-05-24T08:48:57.101Z,21.14
2017-05-24T08:49:22.564Z,21.06
2017-05-24T08:49:48.040Z,21.12
2017-05-24T08:50:13.517Z,21.12
2017-05-24T08:50:39.004Z,21.11
2017-05-24T08:51:04.474Z,21.06
2017-05-24T08:51:29.937Z,21
2017-05-24T08:51:55.403Z,21.02
2017-05-24T08:52:20.852Z,20.96
2017-05-24T08:52:46.301Z,20.92
2017-05-24T08:53:11.751Z,20.99
2017-05-24T08:53:37.215Z,20.82
2017-05-24T08:54:02.755Z,20.92
2017-05-24T08:54:28.211Z,20.92
2017-05-24T08:54:53.676Z,20.92
2017-05-24T08:55:19.128Z,20.97
2017-05-24T08:55:44.587Z,20.9
2017-05-24T08:56:10.069Z,20.93
2017-05-24T08:56:35.525Z,20.92
2017-05-24T08:57:00.985Z,20.93
2017-05-24T08:57:26.468Z,20.97
2017-05-24T08:57:51.967Z,20.87
2017-05-24T08:58:17.397Z,20.84
2017-05-24T08:58:42.904Z,20.97
2017-05-24T08:59:08.402Z,20.97
2017-05-24T08:59:33.821Z,20.93
2017-05-24T08:59:59.305Z,20.92
2017-05-24T09:00:24.766Z,20.9
2017-05-24T09:00:50.238Z,20.88
2017-05-24T09:01:15.690Z,20.84
2017-05-24T09:01:41.192Z,20.82
2017-05-24T09:02:06.639Z,20.8
2017-05-24T09:02:32.152Z,20.82
2017-05-24T09:02:57.627Z,20.81
2017-05-24T09:03:23.089Z,20.82
2017-05-24T09:03:48.594Z,20.82
2017-05-24T09:04:14.047Z,20.82
2017-05-24T09:04:39.490Z,20.87
2017-05-24T09:05:04.973Z,20.8
2017-05-24T09:05:30.417Z,20.87
2017-05-24T09:05:55.880Z,20.81
2017-05-24T09:06:21.374Z,20.88
2017-05-24T09:06:46.847Z,20.95
2017-05-24T09:07:12.308Z,20.92
2017-05-24T09:07:37.795Z,21.02
2017-05-24T09:08:03.238Z,20.95
2017-05-24T09:08:28.808Z,20.99
2017-05-24T09:08:54.180Z,21.02
2017-05-24T09:09:19.620Z,20.97
2017-05-24T09:09:45.109Z,21.09
2017-05-24T09:10:10.577Z,21.05
2017-05-24T09:10:36.044Z,21
2017-05-24T09:11:01.530Z,21.15
2017-05-24T09:11:27.039Z,21.17
2017-05-24T09:11:52.502Z,21.2
2017-05-24T09:12:17.962Z,21.24
2017-05-24T09:12:43.432Z,21.25
2017-05-24T09:13:08.873Z,21.2
2017-05-24T09:13:34.347Z,21.25
2017-05-24T09:13:59.863Z,21.25
2017-05-24T09:14:25.269Z,21.36
2017-05-24T09:14:50.741Z,21.42
2017-05-24T09:15:16.235Z,21.4
2017-05-24T09:15:41.693Z,21.43
2017-05-24T09:16:07.201Z,21.4
2017-05-24T09:16:32.661Z,21.43
2017-05-24T09:16:58.126Z,21.51
2017-05-24T09:17:23.572Z,21.6
2017-05-24T09:17:49.063Z,21.5
2017-05-24T09:18:14.521Z,21.61
2017-05-24T09:18:40.007Z,21.57
2017-05-24T09:19:05.467Z,21.66
2017-05-24T09:19:30.964Z,21.66
2017-05-24T09:19:56.417Z,21.7
2017-05-24T09:20:21.912Z,21.69
2017-05-24T09:20:47.352Z,21.7
2017-05-24T09:21:12.826Z,21.75
2017-05-24T09:21:38.339Z,21.75
2017-05-24T09:22:03.768Z,21.79
2017-05-24T09:22:29.217Z,21.83
2017-05-24T09:22:54.652Z,21.91
2017-05-24T09:23:20.126Z,21.89
2017-05-24T09:23:45.608Z,21.98
2017-05-24T09:24:11.084Z,22
2017-05-24T09:24:36.518Z,21.96
2017-05-24T09:25:01.964Z,21.96
2017-05-24T09:25:27.421Z,22.06
2017-05-24T09:25:52.862Z,22.17
2017-05-24T09:26:18.379Z,22.25
2017-05-24T09:26:43.797Z,22.18
2017-05-24T09:27:09.257Z,22.2
2017-05-24T09:27:34.747Z,22.25
2017-05-24T09:28:00.344Z,22.26
2017-05-24T09:28:25.790Z,22.28
2017-05-24T09:28:51.248Z,22.26
2017-05-24T09:29:16.728Z,22.26
2017-05-24T09:29:42.163Z,22.29
2017-05-24T09:30:07.646Z,22.35
2017-05-24T09:30:33.099Z,22.35
2017-05-24T09:30:58.538Z,22.32
2017-05-24T09:31:24.050Z,22.32
2017-05-24T09:31:49.520Z,22.36
2017-05-24T09:32:14.953Z,22.38
2017-05-24T09:32:40.442Z,22.36
2017-05-24T09:33:05.901Z,22.44
2017-05-24T09:33:31.379Z,22.51
2017-05-24T09:33:56.986Z,22.51
2017-05-24T09:34:22.422Z,22.48
2017-05-24T09:34:47.902Z,22.48
2017-05-24T09:35:13.374Z,22.47
2017-05-24T09:35:38.848Z,22.51
2017-05-24T09:36:04.335Z,22.62
2017-05-24T09:36:29.792Z,22.65
2017-05-24T09:36:55.281Z,22.6
2017-05-24T09:37:20.732Z,22.62
2017-05-24T09:37:46.212Z,22.62
2017-05-24T09:38:11.690Z,22.65
2017-05-24T09:38:37.141Z,22.75
2017-05-24T09:39:02.596Z,22.7
2017-05-24T09:39:28.075Z,22.72
2017-05-24T09:39:53.553Z,22.73
2017-05-24T09:40:19.012Z,22.75
2017-05-24T09:40:44.524Z,22.81
2017-05-24T09:41:09.958Z,22.76
2017-05-24T09:41:35.438Z,22.8
2017-05-24T09:42:00.892Z,22.81
2017-05-24T09:42:26.339Z,22.81
2017-05-24T09:42:51.824Z,22.9
2017-05-24T09:43:17.258Z,22.81
2017-05-24T09:43:42.733Z,22.81
2017-05-24T09:44:08.185Z,22.85
2017-05-24T09:44:33.657Z,22.83
2017-05-24T09:44:59.119Z,22.78
2017-05-24T09:45:24.582Z,22.84
2017-05-24T09:45:50.042Z,22.81
2017-05-24T09:46:15.518Z,22.75
2017-05-24T09:46:41.011Z,22.75
2017-05-24T09:47:06.464Z,22.72
2017-05-24T09:47:31.924Z,22.73
2017-05-24T09:47:57.369Z,22.78
2017-05-24T09:48:22.846Z,22.75
2017-05-24T09:48:48.266Z,22.7
2017-05-24T09:49:13.722Z,22.72
2017-05-24T09:49:39.232Z,22.72
2017-05-24T09:50:04.689Z,22.69
2017-05-24T09:50:30.191Z,22.6
2017-05-24T09:50:55.653Z,22.62
2017-05-24T09:51:21.153Z,22.69
2017-05-24T09:51:46.602Z,22.59
2017-05-24T09:52:12.062Z,22.63
2017-05-24T09:52:37.525Z,22.63
2017-05-24T09:53:03.007Z,22.59
2017-05-24T09:53:28.482Z,22.59
2017-05-24T09:53:53.988Z,22.57
2017-05-24T09:54:19.469Z,22.63
2017-05-24T09:54:44.918Z,22.6
2017-05-24T09:55:10.417Z,22.59
2017-05-24T09:55:35.887Z,22.55
2017-05-24T09:56:01.343Z,22.48
2017-05-24T09:56:26.832Z,22.5
2017-05-24T09:56:52.347Z,22.48
2017-05-24T09:57:17.802Z,22.47
2017-05-24T09:57:43.272Z,22.47
2017-05-24T09:58:08.751Z,22.51
2017-05-24T09:58:34.205Z,22.5
2017-05-24T09:58:59.723Z,22.54
2017-05-24T09:59:25.190Z,22.57
2017-05-24T09:59:50.672Z,22.5
2017-05-24T10:00:16.170Z,22.55
2017-05-24T10:00:41.615Z,22.57
2017-05-24T10:01:07.112Z,22.48
2017-05-24T10:01:32.578Z,22.53
2017-05-24T10:01:58.050Z,22.59
2017-05-24T10:02:23.500Z,22.57
2017-05-24T10:02:48.994Z,22.62
2017-05-24T10:03:14.434Z,22.62
2017-05-24T10:03:39.922Z,22.63
2017-05-24T10:04:05.383Z,22.62
2017-05-24T10:04:30.876Z,22.63
2017-05-24T10:04:56.350Z,22.75
2017-05-24T10:05:21.810Z,22.76
2017-05-24T10:05:47.288Z,22.81
2017-05-24T10:06:12.735Z,22.81
2017-05-24T10:06:38.192Z,22.81
2017-05-24T10:07:03.670Z,22.84
2017-05-24T10:07:29.138Z,22.85
2017-05-24T10:07:54.632Z,22.88
2017-05-24T10:08:20.091Z,22.96
2017-05-24T10:08:45.552Z,22.93
2017-05-24T10:09:11.060Z,23
2017-05-24T10:09:36.559Z,23.09
2017-05-24T10:10:02.017Z,23.1
2017-05-24T10:10:27.500Z,23.17
2017-05-24T10:10:52.984Z,23.15
2017-05-24T10:11:18.470Z,23.1
2017-05-24T10:11:43.949Z,23.2
2017-05-24T10:12:09.395Z,23.2
2017-05-24T10:12:34.845Z,23.21
2017-05-24T10:13:00.353Z,23.31
2017-05-24T10:13:25.834Z,23.31
2017-05-24T10:13:51.309Z,23.31
2017-05-24T10:14:16.812Z,23.24
2017-05-24T10:14:42.310Z,23.31
2017-05-24T10:15:07.773Z,23.32
2017-05-24T10:15:33.267Z,23.27
2017-05-24T10:15:58.735Z,23.32
2017-05-24T10:16:24.182Z,23.34
2017-05-24T10:16:49.666Z,23.18